Jefferson City, Missouri
Current Conditions -  °F | °C
As of 4:53 PM on Saturday 25 Oct 2014 (Local Time) from KJEF Reporting Station
Clear Clear  
Wind Chill: 81°   Ceiling: Unl
Heat Index: 81°   Visibility: 10mi
Dew Point: 55°   Wind: 3mph
Humidity: 41%   Direction: 260°W
Pressure: 30.01"   Gusts: NA
Location:  38.58°N, 92.18°W
Report Text: KJEF 252153Z 26003KT 10SM CLR 27/13 A3001 RMK AO2 SLP148 T02720128
Loading
Personal Weather Stations






























Interactive Weather Map
Tropical Storm Tracking
New forecast layout! Learn more

10-Day Weather Forecast

Advertisements
Track Severe Weather on mobile